Time;durP1;ratioP1;P1;durP2;ratioP2;P2;SDS_P1;SDS_P2;PMS_P1;PMS_P2;Temp;Humidity;BMP_temperature;BMP_pressure;BME280_temperature;BME280_humidity;BME280_pressure;Samples;Min_cycle;Max_cycle;Signal;HPM_P1;HPM_P2
2021/03/21 00:00:41;;;;;;;5.10;4.10;;;;;;;0.55;57.87;99771.81;5041423;28;19921;-83
2021/03/21 00:03:08;;;;;;;16.50;4.20;;;;;;;0.57;57.86;99772.56;5050556;28;20507;-82
2021/03/21 00:05:36;;;;;;;6.53;3.67;;;;;;;0.59;58.98;99787.56;5049747;28;20435;-79
2021/03/21 00:08:08;;;;;;;5.97;3.87;;;;;;;0.50;58.86;99774.81;5052571;28;20045;-83
2021/03/21 00:10:35;;;;;;;6.07;4.03;;;;;;;0.57;58.73;99785.94;5049857;28;20060;-83
2021/03/21 00:13:03;;;;;;;5.90;4.00;;;;;;;0.40;58.78;99761.22;5053934;28;20061;-83
2021/03/21 00:15:29;;;;;;;10.00;4.73;;;;;;;0.47;58.19;99769.69;5053132;28;20412;-83
2021/03/21 00:17:56;;;;;;;7.13;4.47;;;;;;;0.56;60.78;99784.22;5052709;28;20045;-85
2021/03/21 00:20:25;;;;;;;6.20;3.93;;;;;;;0.39;63.29;99769.34;5053939;28;20208;-83
2021/03/21 00:22:53;;;;;;;8.03;4.10;;;;;;;0.53;61.48;99782.63;5053719;28;20052;-83
2021/03/21 00:25:22;;;;;;;5.17;3.73;;;;;;;0.45;61.51;99776.94;5052623;28;20052;-83
2021/03/21 00:27:49;;;;;;;7.25;3.75;;;;;;;0.48;62.09;99790.97;5039191;28;20052;-83
2021/03/21 00:30:20;;;;;;;5.97;3.90;;;;;;;0.34;62.98;99761.63;5053153;28;20049;-83
2021/03/21 00:32:47;;;;;;;7.50;3.80;;;;;;;0.44;63.11;99783.28;5053370;28;20527;-83
2021/03/21 00:35:14;;;;;;;6.30;4.13;;;;;;;0.30;63.05;99761.00;5052755;28;20084;-83
2021/03/21 00:37:41;;;;;;;7.67;4.00;;;;;;;0.30;61.64;99761.00;5053163;28;20103;-83
2021/03/21 00:40:14;;;;;;;6.70;4.17;;;;;;;0.54;61.86;99784.31;5053072;28;20049;-83
2021/03/21 00:42:40;;;;;;;6.80;4.03;;;;;;;0.49;62.38;99778.44;5052834;28;20056;-83
2021/03/21 00:45:09;;;;;;;6.20;4.10;;;;;;;0.49;62.01;99776.63;5053394;28;20545;-83
2021/03/21 00:47:38;;;;;;;6.43;4.00;;;;;;;0.38;63.33;99762.25;5052928;28;20049;-83
2021/03/21 00:50:06;;;;;;;5.30;4.10;;;;;;;0.25;63.38;99749.75;5053157;28;20049;-84
2021/03/21 00:52:32;;;;;;;9.50;4.63;;;;;;;0.29;64.82;99761.09;5052291;28;20072;-84
2021/03/21 00:54:58;;;;;;;5.60;4.20;;;;;;;0.34;64.87;99772.31;5052554;28;20053;-84
2021/03/21 00:57:26;;;;;;;8.37;4.40;;;;;;;0.19;64.10;99744.81;5052268;28;20060;-84
2021/03/21 00:59:53;;;;;;;9.77;4.40;;;;;;;0.24;62.78;99737.34;5051830;28;20489;-83
2021/03/21 01:02:22;;;;;;;5.83;3.83;;;;;;;0.27;62.56;99729.13;5046965;28;20041;-83
2021/03/21 01:04:49;;;;;;;8.57;4.70;;;;;;;0.47;64.98;99757.16;5051237;28;20051;-83
2021/03/21 01:07:16;;;;;;;6.63;4.20;;;;;;;0.46;66.18;99749.25;5052952;28;20047;-83
2021/03/21 01:09:43;;;;;;;11.00;4.90;;;;;;;0.40;66.52;99745.16;5050479;28;20465;-84
2021/03/21 01:12:10;;;;;;;9.13;5.07;;;;;;;0.28;67.52;99735.31;5052248;28;20049;-83
2021/03/21 01:14:37;;;;;;;6.77;4.27;;;;;;;0.31;67.67;99738.63;5052510;28;20051;-83
2021/03/21 01:17:04;;;;;;;7.27;4.20;;;;;;;0.24;66.87;99729.31;5044677;28;20132;-83
2021/03/21 01:19:31;;;;;;;6.97;4.43;;;;;;;0.22;66.44;99725.03;5034830;28;20071;-83
2021/03/21 01:21:57;;;;;;;7.67;3.60;;;;;;;0.26;66.08;99734.56;5051144;28;20056;-83
2021/03/21 01:24:24;;;;;;;5.90;3.53;;;;;;;0.21;64.66;99712.63;5052389;28;20045;-84
2021/03/21 01:26:51;;;;;;;5.67;3.90;;;;;;;0.28;63.34;99713.91;5052225;28;20061;-83
2021/03/21 01:29:18;;;;;;;10.53;4.53;;;;;;;0.35;63.86;99709.84;5052070;28;20045;-83
2021/03/21 01:31:47;;;;;;;6.10;4.10;;;;;;;0.36;65.34;99714.22;5052177;28;20545;-83
2021/03/21 01:34:14;;;;;;;9.67;4.30;;;;;;;0.31;65.86;99722.56;5040701;28;20604;-83
2021/03/21 01:36:41;;;;;;;6.53;4.30;;;;;;;0.19;66.42;99695.84;5052277;28;20045;-84
2021/03/21 01:39:10;;;;;;;11.03;4.20;;;;;;;0.34;65.96;99713.47;5052515;28;20048;-83
2021/03/21 01:41:38;;;;;;;5.50;3.80;;;;;;;0.30;66.48;99699.47;5051602;28;20049;-84
2021/03/21 01:44:07;;;;;;;9.87;4.60;;;;;;;0.33;65.69;99701.94;5051465;28;20045;-83
2021/03/21 01:47:01;;;;;;;7.23;4.40;;;;;;;0.30;66.02;99707.50;5052478;28;20062;-83
2021/03/21 01:49:33;;;;;;;7.03;4.00;;;;;;;0.22;66.21;99690.28;5042989;28;20049;-83
2021/03/21 01:52:03;;;;;;;9.00;4.13;;;;;;;0.32;67.03;99702.91;5049850;28;20049;-83
2021/03/21 01:54:30;;;;;;;6.63;3.90;;;;;;;0.19;67.32;99690.47;5050890;28;20064;-83
2021/03/21 01:56:57;;;;;;;7.10;4.60;;;;;;;0.19;66.92;99687.81;5051536;28;20049;-83
2021/03/21 01:59:26;;;;;;;10.17;4.77;;;;;;;0.23;67.86;99689.31;5050361;28;20153;-83
2021/03/21 02:01:55;;;;;;;6.47;3.93;;;;;;;0.24;68.76;99693.69;5050459;28;20052;-83
2021/03/21 02:04:22;;;;;;;5.87;4.03;;;;;;;0.20;68.51;99682.34;5045812;28;20049;-84
2021/03/21 02:07:04;;;;;;;10.07;4.60;;;;;;;0.31;69.12;99690.47;5049940;28;20047;-84
2021/03/21 02:09:37;;;;;;;7.33;4.40;;;;;;;0.27;67.23;99686.31;5036814;28;20337;-83
2021/03/21 02:12:19;;;;;;;9.77;4.63;;;;;;;0.25;66.66;99685.56;5050879;28;20052;-84
2021/03/21 02:14:53;;;;;;;7.07;4.70;;;;;;;0.23;67.19;99678.63;5047651;28;20401;-83
2021/03/21 02:17:27;;;;;;;6.60;4.17;;;;;;;0.22;65.48;99677.75;5050169;28;20049;-83
2021/03/21 02:20:27;;;;;;;6.20;4.00;;;;;;;0.37;66.17;99665.13;5041370;28;20064;-83
2021/03/21 02:23:02;;;;;;;9.10;4.68;;;;;;;0.38;67.23;99658.81;5050899;28;20226;-84
2021/03/21 02:25:45;;;;;;;5.73;4.30;;;;;;;0.31;68.33;99661.06;5040761;28;20053;-84
2021/03/21 02:28:25;;;;;;;5.17;4.33;;;;;;;0.40;68.58;99685.47;5050550;28;20485;-84
2021/03/21 02:30:56;;;;;;;8.50;4.40;;;;;;;0.27;68.96;99670.28;5050144;28;20061;-84
2021/03/21 02:33:28;;;;;;;9.53;4.33;;;;;;;0.38;68.88;99676.66;5043677;28;20417;-84
2021/03/21 02:36:00;;;;;;;5.77;3.87;;;;;;;0.23;68.46;99652.72;5044541;28;20051;-84
2021/03/21 02:38:32;;;;;;;8.27;4.40;;;;;;;0.39;67.00;99660.50;5050222;28;20045;-84
2021/03/21 02:41:01;;;;;;;6.33;4.03;;;;;;;0.37;67.18;99656.25;5048628;28;20067;-84
2021/03/21 02:43:35;;;;;;;6.50;4.10;;;;;;;0.34;67.71;99655.50;5050335;28;20048;-84
2021/03/21 02:46:06;;;;;;;6.33;4.20;;;;;;;0.26;67.65;99636.47;5049378;28;20049;-84
2021/03/21 02:48:41;;;;;;;5.93;3.90;;;;;;;0.28;67.71;99636.34;5050086;28;20060;-84
2021/03/21 02:51:11;;;;;;;6.67;4.40;;;;;;;0.40;68.93;99653.38;5039664;28;20045;-83
2021/03/21 02:53:47;;;;;;;6.00;4.17;;;;;;;0.35;68.46;99649.19;5049956;28;20135;-83
2021/03/21 02:56:17;;;;;;;6.53;4.13;;;;;;;0.34;66.96;99634.09;5049255;28;20045;-84
2021/03/21 02:58:49;;;;;;;4.90;3.87;;;;;;;0.31;67.32;99634.31;5050028;28;20053;-84
2021/03/21 03:01:21;;;;;;;8.30;4.77;;;;;;;0.34;67.22;99641.28;5050210;28;20409;-84
2021/03/21 03:03:51;;;;;;;7.87;4.83;;;;;;;0.32;67.11;99638.69;5050242;28;20417;-84
2021/03/21 03:06:19;;;;;;;;;;;;;;;0.35;66.59;99635.81;5049800;28;20045;-83
2021/03/21 03:08:49;;;;;;;6.60;4.20;;;;;;;0.37;65.62;99626.84;5050107;28;20361;-83
2021/03/21 03:11:19;;;;;;;6.82;3.95;;;;;;;0.43;67.27;99626.41;5049887;28;20048;-83
2021/03/21 03:13:49;;;;;;;8.30;4.33;;;;;;;0.38;68.62;99625.84;5048069;28;20136;-83
2021/03/21 03:16:23;;;;;;;8.90;4.73;;;;;;;0.32;69.82;99617.31;5034619;28;20049;-84
2021/03/21 03:18:54;;;;;;;7.27;4.17;;;;;;;0.26;68.59;99600.84;5048769;28;20041;-83
2021/03/21 03:21:27;;;;;;;6.93;4.27;;;;;;;0.19;68.30;99597.75;5050075;28;20048;-83
2021/03/21 03:24:01;;;;;;;7.30;4.60;;;;;;;0.30;68.99;99618.38;5050096;28;20049;-82
2021/03/21 03:26:37;;;;;;;7.37;4.50;;;;;;;0.18;69.78;99601.38;5045062;28;20053;-84
2021/03/21 03:29:11;;;;;;;5.97;3.67;;;;;;;0.37;68.86;99616.13;5050384;28;20044;-84
2021/03/21 03:31:45;;;;;;;6.87;4.33;;;;;;;0.31;68.15;99602.22;5050089;28;20401;-84
2021/03/21 03:34:12;;;;;;;8.57;4.97;;;;;;;0.21;69.14;99578.91;5047137;28;20513;-83
2021/03/21 03:36:39;;;;;;;6.90;4.27;;;;;;;0.39;68.83;99595.47;5049655;28;20056;-84
2021/03/21 03:39:06;;;;;;;10.53;4.63;;;;;;;0.29;67.61;99588.09;5049692;28;20091;-84
2021/03/21 03:41:39;;;;;;;8.13;5.13;;;;;;;0.27;67.28;99584.69;5049927;28;20053;-84
2021/03/21 03:44:19;;;;;;;7.77;4.47;;;;;;;0.32;67.18;99609.28;5034684;28;20056;-84
2021/03/21 03:46:49;;;;;;;;;;;;;;;0.38;65.88;99616.03;5052286;28;20053;-84
2021/03/21 03:49:26;;;;;;;11.50;4.13;;;;;;;0.24;67.29;99614.34;5053928;28;19921;-84
2021/03/21 03:52:08;;;;;;;7.90;4.27;;;;;;;0.25;66.75;99604.47;5052955;28;20532;-84
2021/03/21 03:54:42;;;;;;;6.67;4.23;;;;;;;0.24;67.44;99611.66;5052701;28;20064;-84
2021/03/21 03:57:14;;;;;;;9.10;4.10;;;;;;;0.21;67.97;99603.84;5053349;28;20044;-84
2021/03/21 03:59:56;;;;;;;5.50;4.03;;;;;;;0.07;69.00;99585.25;5051346;28;20583;-84
2021/03/21 04:02:29;;;;;;;5.27;3.77;;;;;;;0.14;68.70;99591.88;5043224;28;20049;-84
2021/03/21 04:05:03;;;;;;;6.00;3.63;;;;;;;0.28;67.33;99598.91;5052214;28;20145;-83
2021/03/21 04:07:48;;;;;;;6.03;3.70;;;;;;;0.29;67.33;99600.63;5053786;28;20075;-84
2021/03/21 04:10:18;;;;;;;5.60;3.97;;;;;;;0.23;67.85;99580.53;5052993;28;20052;-84
2021/03/21 04:12:56;;;;;;;6.50;3.80;;;;;;;0.25;68.68;99585.75;5053305;28;20049;-84
2021/03/21 04:15:26;;;;;;;6.30;3.90;;;;;;;0.25;68.19;99585.75;5051583;28;20049;-84
2021/03/21 04:18:00;;;;;;;8.13;4.63;;;;;;;0.26;68.72;99579.47;5052544;28;20045;-84
2021/03/21 04:20:31;;;;;;;6.40;4.13;;;;;;;0.23;68.54;99567.16;5053014;28;20049;-84
2021/03/21 04:23:01;;;;;;;7.60;3.60;;;;;;;0.34;68.88;99579.75;5052943;28;20071;-84
2021/03/21 04:25:31;;;;;;;6.75;4.45;;;;;;;0.19;69.44;99556.78;5052661;28;20056;-85
2021/03/21 04:28:02;;;;;;;;;;;;;;;0.30;69.99;99571.09;5053567;28;20120;-84
2021/03/21 04:30:33;;;;;;;5.00;3.73;;;;;;;0.26;71.11;99569.59;5052695;28;20289;-84
2021/03/21 04:33:03;;;;;;;6.33;3.80;;;;;;;0.28;69.77;99564.16;5052571;28;20051;-84
2021/03/21 04:35:33;;;;;;;5.65;3.53;;;;;;;0.38;70.34;99557.19;5052550;28;20048;-84
2021/03/21 04:38:03;;;;;;;5.53;3.20;;;;;;;0.33;70.52;99551.28;5052240;28;20051;-84
2021/03/21 04:40:31;;;;;;;6.82;3.92;;;;;;;0.20;70.09;99535.28;5053178;28;20057;-84
2021/03/21 04:43:01;;;;;;;7.77;3.73;;;;;;;0.18;70.09;99531.84;5052329;28;20052;-84
2021/03/21 04:45:32;;;;;;;9.30;4.50;;;;;;;0.34;71.25;99543.16;5051368;28;20055;-84
2021/03/21 04:48:02;;;;;;;7.90;4.10;;;;;;;0.34;70.29;99528.94;5039017;28;20561;-84
2021/03/21 04:50:30;;;;;;;4.65;3.53;;;;;;;0.25;69.08;99519.75;5052129;28;20052;-84
2021/03/21 04:53:15;;;;;;;6.03;3.33;;;;;;;0.37;67.79;99552.78;5052258;28;20052;-84
2021/03/21 04:55:46;;;;;;;6.67;2.90;;;;;;;0.43;68.43;99547.00;5045713;28;20057;-84
2021/03/21 04:58:16;;;;;;;8.90;3.30;;;;;;;0.49;69.48;99538.53;5051383;28;20576;-84
2021/03/21 05:00:44;;;;;;;;;;;;;;;0.52;67.27;99548.16;5049528;28;20048;-84
2021/03/21 05:03:19;;;;;;;6.83;3.27;;;;;;;0.53;66.54;99553.38;5052472;28;20418;-83
2021/03/21 05:05:51;;;;;;;5.20;3.40;;;;;;;0.27;68.08;99533.00;5051605;28;20053;-84
2021/03/21 05:08:23;;;;;;;7.20;4.00;;;;;;;0.39;69.82;99553.53;5052566;28;20060;-84
2021/03/21 05:10:52;;;;;;;6.50;3.53;;;;;;;0.27;69.21;99541.91;5052201;28;20048;-84
2021/03/21 05:13:24;;;;;;;6.63;3.97;;;;;;;0.34;69.17;99561.88;5051855;28;20049;-83
2021/03/21 05:15:55;;;;;;;4.60;3.13;;;;;;;0.32;68.10;99550.44;5051158;28;20060;-84
2021/03/21 05:18:35;;;;;;;7.83;3.80;;;;;;;0.39;69.35;99563.38;5033229;28;20054;-84
2021/03/21 05:21:09;;;;;;;5.22;3.45;;;;;;;0.18;70.19;99545.22;5051875;28;20057;-84
2021/03/21 05:23:47;;;;;;;4.57;2.87;;;;;;;0.37;68.33;99563.47;5051654;28;20056;-84
2021/03/21 05:26:18;;;;;;;9.40;3.67;;;;;;;0.34;67.26;99545.81;5051337;28;20571;-84
2021/03/21 05:29:06;;;;;;;8.70;3.30;;;;;;;0.43;68.29;99567.53;5051969;28;20052;-84
2021/03/21 05:31:33;;;;;;;5.10;3.00;;;;;;;0.32;68.81;99558.47;5048571;28;20068;-84
2021/03/21 05:34:02;;;;;;;5.67;3.50;;;;;;;0.45;68.85;99563.81;5051276;28;20616;-84
2021/03/21 05:36:57;;;;;;;5.57;3.43;;;;;;;0.51;68.17;99557.13;5051161;28;20489;-84
2021/03/21 05:39:42;;;;;;;4.23;3.00;;;;;;;0.43;68.38;99547.00;5051876;28;20073;-84
2021/03/21 05:42:52;;;;;;;4.10;2.87;;;;;;;0.47;69.27;99564.53;5051516;28;20148;-84
2021/03/21 05:45:45;;;;;;;5.93;2.95;;;;;;;0.40;67.46;99546.38;5050452;28;20053;-83
2021/03/21 05:48:32;;;;;;;6.87;3.40;;;;;;;0.43;66.50;99532.78;5051308;28;20497;-84
2021/03/21 05:51:17;;;;;;;9.07;2.83;;;;;;;0.47;65.45;99519.06;5051309;28;20045;-83
2021/03/21 05:54:23;;;;;;;4.63;2.87;;;;;;;0.56;64.54;99522.88;5050971;28;20572;-84
2021/03/21 05:57:23;;;;;;;5.93;2.90;;;;;;;0.70;65.65;99524.53;5043279;28;20115;-84
2021/03/21 06:00:09;;;;;;;;;;;;;;;0.71;63.35;99518.22;5046661;28;20049;-84
2021/03/21 06:03:07;;;;;;;3.43;2.40;;;;;;;0.59;61.82;99489.69;5041344;28;19928;-84
2021/03/21 06:06:06;;;;;;;3.93;2.47;;;;;;;0.75;62.96;99519.69;5050276;28;20056;-84
2021/03/21 06:08:44;;;;;;;4.20;2.63;;;;;;;0.81;63.10;99502.34;5049357;28;20056;-84
2021/03/21 06:11:47;;;;;;;6.93;2.73;;;;;;;0.75;61.27;99481.38;5050454;28;20044;-84
2021/03/21 06:15:00;;;;;;;4.07;2.70;;;;;;;0.70;61.49;99490.59;5050147;28;20569;-84
2021/03/21 06:17:55;;;;;;;4.40;2.50;;;;;;;0.86;62.47;99510.88;5037871;28;20080;-84
2021/03/21 06:21:01;;;;;;;4.30;2.57;;;;;;;0.76;60.51;99493.81;5043143;28;20115;-84
2021/03/21 06:23:56;;;;;;;4.87;2.60;;;;;;;0.80;59.69;99503.28;5048457;28;20464;-85
2021/03/21 06:26:33;;;;;;;5.60;2.63;;;;;;;0.84;61.55;99496.75;5049964;28;20056;-85
2021/03/21 06:29:27;;;;;;;6.50;2.70;;;;;;;1.02;60.86;99518.59;5048732;28;20052;-85
2021/03/21 06:32:19;;;;;;;3.17;2.00;;;;;;;0.98;60.65;99518.00;5050721;28;20052;-85
2021/03/21 06:34:52;;;;;;;5.83;3.07;;;;;;;0.98;62.01;99511.78;5048895;28;20057;-84
2021/03/21 06:37:40;;;;;;;3.77;3.00;;;;;;;1.04;60.39;99525.56;5050909;28;20060;-84
2021/03/21 06:40:37;;;;;;;4.30;2.27;;;;;;;0.89;59.47;99505.31;5045967;28;20071;-84
2021/03/21 06:43:44;;;;;;;3.47;2.30;;;;;;;0.92;58.56;99501.53;5051185;28;20064;-84
2021/03/21 06:46:35;;;;;;;4.17;2.40;;;;;;;1.07;59.52;99521.81;4981854;28;20053;-84
2021/03/21 06:49:26;;;;;;;4.80;2.27;;;;;;;1.03;59.09;99510.47;5038748;28;20107;-84
2021/03/21 06:52:11;;;;;;;6.77;2.60;;;;;;;0.99;58.95;99503.63;5045082;28;20076;-84
2021/03/21 06:54:51;;;;;;;4.93;3.13;;;;;;;1.13;58.69;99521.34;5049517;28;20400;-81
2021/03/21 06:58:08;;;;;;;3.53;2.30;;;;;;;1.14;58.59;99516.84;5049741;28;20049;-80
2021/03/21 07:01:22;;;;;;;4.17;2.67;;;;;;;1.14;57.70;99515.00;5049716;28;20051;-81
2021/03/21 07:04:49;;;;;;;4.17;1.83;;;;;;;1.10;59.12;99500.16;5049858;28;20548;-80
2021/03/21 07:08:09;;;;;;;4.30;2.93;;;;;;;1.11;58.80;99495.66;5049848;28;20049;-83
2021/03/21 07:11:17;;;;;;;5.47;2.78;;;;;;;1.29;61.35;99502.28;5038109;28;20060;-83
2021/03/21 07:14:43;;;;;;;3.50;2.38;;;;;;;1.17;58.09;99479.94;5050177;28;20346;-83
2021/03/21 07:17:33;;;;;;;3.50;2.30;;;;;;;1.22;57.98;99490.34;5050453;28;20136;-83
2021/03/21 07:20:51;;;;;;;2.83;2.53;;;;;;;1.26;57.91;99488.28;5028487;28;20049;-83
2021/03/21 07:23:36;;;;;;;4.80;2.63;;;;;;;1.40;59.05;99505.00;5053182;28;20063;-82
2021/03/21 07:26:56;;;;;;;7.18;2.85;;;;;;;1.36;56.90;99491.94;5053181;28;20059;-84
2021/03/21 07:29:41;;;;;;;4.10;2.53;;;;;;;1.42;57.02;99495.00;4988929;28;20053;-84
2021/03/21 07:32:33;;;;;;;4.65;2.50;;;;;;;1.43;56.56;99495.88;4993281;28;20046;-84
2021/03/21 07:35:24;;;;;;;8.07;4.28;;;;;;;1.48;57.02;99485.63;5032873;28;20537;-85
2021/03/21 07:38:00;;;;;;;10.67;4.67;;;;;;;1.56;55.66;99501.13;5055820;28;20389;-85
2021/03/21 07:40:39;;;;;;;5.07;2.33;;;;;;;1.47;56.06;99475.03;5049534;28;20049;-84
2021/03/21 07:43:45;;;;;;;4.57;2.45;;;;;;;1.62;54.14;99499.81;5037020;28;20059;-85
2021/03/21 07:46:45;;;;;;;4.75;2.15;;;;;;;1.59;53.80;99495.53;5048910;28;20045;-85
2021/03/21 07:49:50;;;;;;;5.00;2.17;;;;;;;1.48;53.96;99474.09;5049640;28;20083;-84
2021/03/21 07:52:49;;;;;;;6.15;2.28;;;;;;;1.49;53.78;99463.25;5001953;28;20059;-83
2021/03/21 07:55:31;;;;;;;4.80;2.27;;;;;;;1.66;53.92;99488.72;5040955;28;20110;-85
2021/03/21 07:58:26;;;;;;;3.80;2.23;;;;;;;1.61;53.82;99466.75;5041432;28;20049;-84
2021/03/21 08:00:56;;;;;;;3.53;2.20;;;;;;;1.63;54.58;99464.84;5051964;28;20499;-85
2021/03/21 08:03:43;;;;;;;6.45;2.80;;;;;;;1.84;53.16;99481.06;5053125;28;20058;-84
2021/03/21 08:06:30;;;;;;;3.40;1.92;;;;;;;1.83;53.34;99463.25;5053310;28;20044;-85
2021/03/21 08:12:49;;;;;;;10.85;4.00;;;;;;;1.86;52.05;99435.34;5054829;28;20408;-84
2021/03/21 08:15:38;;;;;;;5.53;2.20;;;;;;;1.85;52.16;99425.59;5044602;28;20045;-85
2021/03/21 08:22:01;;;;;;;6.97;1.75;;;;;;;2.16;52.54;99410.56;5010922;28;20093;-85
2021/03/21 08:28:03;;;;;;;2.83;2.03;;;;;;;2.08;51.35;99413.03;4918350;28;20136;-85
2021/03/21 08:30:49;;;;;;;4.10;1.98;;;;;;;2.10;51.58;99401.19;5006968;28;20054;-84
2021/03/21 08:33:27;;;;;;;4.55;1.85;;;;;;;2.11;51.80;99397.53;5009972;28;20054;-85
2021/03/21 08:36:09;;;;;;;4.13;1.90;;;;;;;2.33;51.45;99413.69;5010346;28;20430;-83
2021/03/21 08:38:40;;;;;;;4.90;1.83;;;;;;;2.41;52.30;99411.22;5011327;28;20141;-85
2021/03/21 08:41:09;;;;;;;5.50;2.38;;;;;;;2.29;51.91;99375.56;5011479;28;20053;-83
2021/03/21 08:43:45;;;;;;;3.70;2.13;;;;;;;2.35;51.63;99393.81;5011530;28;20073;-85
2021/03/21 08:46:24;;;;;;;4.13;2.45;;;;;;;2.44;51.08;99392.22;5047023;28;20052;-86
2021/03/21 08:49:02;;;;;;;4.93;2.45;;;;;;;2.52;50.80;99407.69;5053373;28;20508;-84
2021/03/21 08:51:48;;;;;;;4.00;2.70;;;;;;;2.48;50.07;99407.06;5057827;28;20099;-81
2021/03/21 08:54:21;;;;;;;3.80;2.08;;;;;;;2.52;50.30;99407.69;5043575;28;20052;-79
2021/03/21 08:59:51;;;;;;;6.05;2.25;;;;;;;2.60;51.21;99423.97;5044071;28;20044;-81
2021/03/21 09:06:12;;;;;;;4.95;3.15;;;;;;;2.65;52.55;99428.00;5051821;28;20421;-82
2021/03/21 09:08:52;;;;;;;6.53;2.85;;;;;;;2.71;52.47;99444.56;5044847;28;20565;-84
2021/03/21 09:11:36;;;;;;;6.60;3.15;;;;;;;2.65;51.83;99435.22;5053207;28;20426;-83
2021/03/21 09:14:06;;;;;;;7.80;3.28;;;;;;;2.68;52.07;99437.63;5046046;28;20056;-82
2021/03/21 09:17:08;;;;;;;3.65;2.28;;;;;;;2.52;51.74;99416.56;5035776;28;20405;-83
2021/03/21 09:22:39;;;;;;;6.18;2.97;;;;;;;2.89;53.78;99442.16;5040651;28;20045;-82
2021/03/21 09:25:14;;;;;;;5.45;2.78;;;;;;;2.80;52.30;99430.34;5052112;28;20057;-83
2021/03/21 09:27:44;;;;;;;4.97;3.42;;;;;;;2.91;53.34;99445.59;5049898;28;20489;-83
2021/03/21 09:30:31;;;;;;;5.05;2.90;;;;;;;2.88;52.07;99427.06;5052554;28;20140;-82
2021/03/21 09:33:01;;;;;;;4.75;2.80;;;;;;;2.93;51.53;99430.19;5049888;28;20049;-83
2021/03/21 09:35:53;;;;;;;5.25;3.35;;;;;;;3.06;51.82;99441.59;5051997;28;20049;-83
2021/03/21 09:38:31;;;;;;;6.88;3.35;;;;;;;3.07;52.11;99423.66;5035563;28;20052;-82
2021/03/21 09:41:04;;;;;;;10.10;3.72;;;;;;;3.10;51.75;99426.94;5047544;28;20512;-82
2021/03/21 09:43:39;;;;;;;5.70;3.53;;;;;;;3.17;51.63;99417.34;5051629;28;20041;-82
2021/03/21 09:46:33;;;;;;;4.93;3.03;;;;;;;3.38;51.60;99440.69;5051902;28;20155;-82
2021/03/21 09:49:46;;;;;;;5.57;2.95;;;;;;;3.44;51.62;99437.47;5052234;28;20041;-82
2021/03/21 09:59:21;;;;;;;7.75;4.22;;;;;;;3.70;51.55;99440.59;4968955;28;20065;-83
2021/03/21 10:01:56;;;;;;;8.73;3.95;;;;;;;3.77;51.48;99435.50;5006463;28;20054;-85
2021/03/21 10:04:52;;;;;;;3.20;2.40;;;;;;;3.95;51.63;99432.19;5034616;28;20140;-87
2021/03/21 10:07:30;;;;;;;5.93;3.05;;;;;;;3.92;51.69;99427.94;5040145;28;20045;-86
2021/03/21 10:10:11;;;;;;;;;;;;;;;;;;;;;
2021/03/21 10:12:58;;;;;;;6.30;2.90;;;;;;;3.92;51.29;99430.63;5044705;28;20041;-85
2021/03/21 10:16:13;;;;;;;8.25;4.05;;;;;;;3.90;51.93;99417.31;5041484;28;20061;-85
2021/03/21 10:18:43;;;;;;;8.07;2.63;;;;;;;4.02;52.08;99417.19;5033723;28;20128;-84
2021/03/21 10:21:33;;;;;;;7.72;3.70;;;;;;;4.07;51.85;99420.34;5052145;28;20488;-84
2021/03/21 10:24:14;;;;;;;;;;;;;;;4.01;52.29;99426.28;5052056;28;20378;-84
2021/03/21 10:27:26;;;;;;;7.53;2.92;;;;;;;4.02;53.14;99434.22;5052127;28;20003;-84
2021/03/21 10:30:33;;;;;;;6.15;3.20;;;;;;;4.00;53.29;99430.78;5045605;28;20227;-84
2021/03/21 10:33:34;;;;;;;8.07;3.15;;;;;;;4.01;53.65;99432.50;5049427;28;20564;-84
2021/03/21 10:36:50;;;;;;;5.05;3.42;;;;;;;4.04;54.42;99401.78;5028817;28;20053;-84
2021/03/21 10:39:57;;;;;;;7.43;3.92;;;;;;;4.04;55.13;99401.78;5039318;28;20040;-84
2021/03/21 10:42:55;;;;;;;7.80;3.78;;;;;;;4.07;57.89;99414.97;5051433;28;20049;-84
2021/03/21 10:45:54;;;;;;;8.68;3.85;;;;;;;4.17;59.12;99418.53;5051095;28;20578;-84
2021/03/21 10:48:56;;;;;;;6.57;3.97;;;;;;;4.29;59.81;99416.59;5047097;28;20481;-85
2021/03/21 10:52:04;;;;;;;3.80;2.28;;;;;;;3.85;59.24;99400.75;5050991;28;20079;-86
2021/03/21 10:54:31;;;;;;;7.32;3.80;;;;;;;4.01;59.58;99405.59;5050939;28;20049;-85
2021/03/21 10:57:34;;;;;;;6.40;4.03;;;;;;;4.16;59.58;99402.53;5050448;28;20045;-85
2021/03/21 11:00:18;;;;;;;7.13;3.60;;;;;;;4.02;60.54;99388.47;5043126;28;20098;-85
2021/03/21 11:03:11;;;;;;;4.80;3.42;;;;;;;4.12;60.56;99383.09;5051264;28;20049;-84
2021/03/21 11:05:43;;;;;;;5.32;3.55;;;;;;;4.11;61.25;99376.03;5051104;28;20044;-85
2021/03/21 11:08:26;;;;;;;4.97;3.67;;;;;;;4.02;60.18;99349.94;5051230;28;20118;-84
2021/03/21 11:11:35;;;;;;;6.03;3.97;;;;;;;4.04;60.72;99361.44;5051468;28;20503;-85
2021/03/21 11:14:26;;;;;;;7.45;4.13;;;;;;;4.14;59.83;99367.69;5051034;28;20521;-84
2021/03/21 11:16:58;;;;;;;9.32;4.75;;;;;;;4.31;59.89;99384.97;5039534;28;20052;-84
2021/03/21 11:19:28;;;;;;;9.60;5.30;;;;;;;4.13;60.91;99355.22;5038125;28;20067;-84
2021/03/21 11:21:56;;;;;;;7.28;4.50;;;;;;;4.09;60.14;99364.53;5049376;28;20048;-84
2021/03/21 11:24:36;;;;;;;8.98;4.55;;;;;;;4.18;59.60;99347.56;5049281;28;20559;-84
2021/03/21 11:27:06;;;;;;;8.20;3.72;;;;;;;4.15;59.50;99358.59;5049450;28;20408;-84
2021/03/21 11:29:37;;;;;;;12.23;5.33;;;;;;;4.30;58.40;99347.44;5051657;28;20059;-84
2021/03/21 11:32:16;;;;;;;15.73;6.22;;;;;;;4.47;59.20;99364.72;5050283;28;20318;-84
2021/03/21 11:34:44;;;;;;;7.90;4.70;;;;;;;4.43;58.12;99361.47;5049828;28;20049;-84
2021/03/21 11:37:19;;;;;;;10.25;4.18;;;;;;;4.36;58.03;99361.19;5047770;28;20082;-84
2021/03/21 11:39:48;;;;;;;9.35;3.65;;;;;;;4.34;57.94;99362.34;5050936;28;20512;-84
2021/03/21 11:42:22;;;;;;;8.02;4.68;;;;;;;4.18;58.32;99357.47;5050374;28;20057;-83
2021/03/21 11:44:50;;;;;;;7.53;4.38;;;;;;;4.11;58.63;99351.81;5050583;28;20404;-83
2021/03/21 11:47:28;;;;;;;9.45;4.93;;;;;;;4.22;58.07;99372.38;5050290;28;20143;-83
2021/03/21 11:49:57;;;;;;;12.50;5.55;;;;;;;4.21;58.84;99376.88;5050929;28;20053;-84
2021/03/21 11:52:25;;;;;;;10.20;5.32;;;;;;;4.14;58.66;99372.19;5050178;28;20095;-84
2021/03/21 11:54:54;;;;;;;9.20;4.97;;;;;;;4.03;59.05;99347.09;5050464;28;20041;-84
2021/03/21 11:57:32;;;;;;;9.10;4.70;;;;;;;4.23;59.57;99371.34;5050803;28;20077;-84
2021/03/21 12:00:06;;;;;;;9.65;4.50;;;;;;;4.23;59.79;99369.53;5036406;28;20052;-83
2021/03/21 12:05:22;;;;;;;6.13;3.47;;;;;;;4.37;58.57;99352.13;5040668;28;20580;-85
2021/03/21 12:07:49;;;;;;;7.30;3.05;;;;;;;4.37;58.54;99348.59;5053209;28;20052;-85
2021/03/21 12:10:27;;;;;;;8.40;4.50;;;;;;;4.56;59.01;99355.81;5054315;28;20053;-86
2021/03/21 12:12:53;;;;;;;11.82;4.22;;;;;;;4.46;59.81;99347.75;5048014;28;20068;-85
2021/03/21 12:15:36;;;;;;;6.05;3.50;;;;;;;4.33;61.45;99331.00;5053487;28;20049;-85
2021/03/21 12:18:06;;;;;;;5.43;2.83;;;;;;;4.31;62.69;99338.38;5053577;28;20053;-85
2021/03/21 12:20:45;;;;;;;5.70;3.47;;;;;;;4.13;64.65;99327.47;5053716;28;20094;-84
2021/03/21 12:23:41;;;;;;;9.90;3.78;;;;;;;4.10;65.34;99333.13;5053835;28;20079;-84
2021/03/21 12:26:37;;;;;;;;;;;;;;;;;;;;;
2021/03/21 12:29:28;;;;;;;17.98;5.35;;;;;;;4.16;66.01;99335.25;5053220;28;20053;-85
2021/03/21 12:32:18;;;;;;;8.48;3.60;;;;;;;4.00;66.51;99327.72;5054296;28;20550;-85
2021/03/21 12:34:55;;;;;;;8.63;3.65;;;;;;;3.91;67.68;99324.00;5053775;28;20082;-86
2021/03/21 12:37:52;;;;;;;12.05;5.30;;;;;;;3.99;68.33;99336.75;5054035;28;20057;-85
2021/03/21 12:40:33;;;;;;;11.13;5.43;;;;;;;3.97;69.13;99341.44;5054363;28;20489;-85
2021/03/21 12:43:25;;;;;;;;;;;;;;;3.92;70.12;99344.53;5054457;28;20110;-85
2021/03/21 12:46:08;;;;;;;7.03;4.53;;;;;;;3.92;70.30;99328.41;5053916;28;19928;-84
2021/03/21 12:48:47;;;;;;;8.68;4.68;;;;;;;3.97;70.47;99319.91;5053794;28;20424;-85
2021/03/21 12:51:40;;;;;;;10.27;4.25;;;;;;;3.84;71.38;99323.72;5053822;28;20047;-85
2021/03/21 12:54:07;;;;;;;6.00;3.92;;;;;;;3.83;71.13;99308.56;5053130;28;20048;-84
2021/03/21 12:56:33;;;;;;;7.35;4.00;;;;;;;3.72;71.64;99297.94;5053106;28;20225;-84
2021/03/21 12:59:00;;;;;;;12.20;5.50;;;;;;;3.87;72.09;99334.19;5052994;28;20045;-85
2021/03/21 13:01:26;;;;;;;10.80;6.53;;;;;;;3.85;72.17;99297.66;5053459;28;20056;-84
2021/03/21 13:03:54;;;;;;;8.10;4.88;;;;;;;3.95;72.51;99313.84;5052761;28;20052;-85
2021/03/21 13:06:20;;;;;;;8.50;4.75;;;;;;;3.78;73.07;99302.75;5052862;28;20083;-85
2021/03/21 13:08:52;;;;;;;10.52;5.35;;;;;;;3.89;72.60;99302.63;5051986;28;20052;-85
2021/03/21 13:11:19;;;;;;;7.45;4.93;;;;;;;3.83;72.45;99300.50;5053916;28;20052;-85
2021/03/21 13:13:46;;;;;;;10.02;5.32;;;;;;;3.74;72.52;99295.94;5052222;28;20428;-85